This is the latest recevied weather packets stored in our database for station/object IW9CSJ-13. If no packets are shown the sender has not sent any weather packets the latest 10 day(s).
| Time | Temp. | Humidity | Pressure | Rain* | Wind** | Luminosity | Snow |
|---|---|---|---|---|---|---|---|
| 1777421116 | 16.11° C | 34% | 1015.2 hPa | 0 mm | - | - | - |
| 1777420516 | 15.56° C | 35% | 1015.2 hPa | 0 mm | - | - | - |
| 1777420221 | 15.56° C | 35% | 1015.2 hPa | 0 mm | - | - | - |
| 1777419946 | 15.56° C | 36% | 1015.3 hPa | 0 mm | - | - | - |
| 1777419616 | 15.56° C | 36% | 1015.3 hPa | 0 mm | - | - | - |
| 1777416627 | 16.11° C | 37% | 1015.4 hPa | 0 mm | - | - | - |
| 1777414518 | 15.56° C | 42% | 1015.4 hPa | 0 mm | - | - | - |
| 1777413925 | 15.56° C | 42% | 1015.4 hPa | 0 mm | - | - | - |
| 1777412723 | 16.11° C | 42% | 1015.5 hPa | 0 mm | - | - | - |
| 1777410917 | 16.11° C | 42% | 1015.7 hPa | 0 mm | - | - | - |
| 1777407624 | 15° C | 60% | 1015.4 hPa | 0 mm | - | - | - |
| 1777407024 | 15° C | 61% | 1015.3 hPa | 0 mm | - | - | - |
| 1777404036 | 15° C | 62% | 1015.2 hPa | 0 mm | - | - | - |
| 1777402817 | 15.56° C | 63% | 1015.2 hPa | 0 mm | - | - | - |
| 1777402519 | 15.56° C | 62% | 1015 hPa | 0 mm | - | - | - |
| 1777402218 | 15.56° C | 63% | 1015.1 hPa | 0 mm | - | - | - |
| 1777401018 | 15° C | 68% | 1014.9 hPa | 0 mm | - | - | - |
| 1777399819 | 15.56° C | 77% | 1014.6 hPa | 0 mm | - | - | - |
| 1777399217 | 15.56° C | 76% | 1014.7 hPa | 0 mm | - | - | - |
| 1777398620 | 15.56° C | 77% | 1014.6 hPa | 0 mm | - | - | - |
| 1777398320 | 15.56° C | 77% | 1014.7 hPa | 0 mm | - | - | - |
| 1777397418 | 16.11° C | 77% | 1014.6 hPa | 0 mm | - | - | - |
| 1777393518 | 16.67° C | 69% | 1014.3 hPa | 0 mm | - | - | - |
| 1777392016 | 17.78° C | 62% | 1014.2 hPa | 0 mm | - | - | - |
| 1777390545 | 18.33° C | 55% | 1014.3 hPa | 0 mm | - | - | - |
* Rain latest hour (hover to see other rain measurements)
** Current wind speed in m/s (hover to see current wind gust speed)